createdAt,value
2022-11-29T00:02:22.223Z,10.63
2022-11-29T00:04:49.059Z,8.88
2022-11-29T00:07:15.683Z,10.13
2022-11-29T00:09:42.346Z,9.88
2022-11-29T00:12:13.396Z,10.70
2022-11-29T00:14:41.391Z,8.93
2022-11-29T00:17:08.292Z,8.20
2022-11-29T00:19:37.067Z,10.35
2022-11-29T00:22:04.476Z,8.70
2022-11-29T00:24:34.656Z,10.27
2022-11-29T00:27:01.320Z,10.25
2022-11-29T00:29:30.212Z,10.07
2022-11-29T00:31:56.891Z,11.57
2022-11-29T00:34:23.887Z,9.15
2022-11-29T00:36:50.485Z,9.18
2022-11-29T00:39:17.174Z,10.93
2022-11-29T00:41:43.892Z,9.82
2022-11-29T00:44:16.811Z,9.80
2022-11-29T00:46:48.286Z,11.30
2022-11-29T00:49:15.504Z,11.35
2022-11-29T00:51:42.149Z,11.23
2022-11-29T00:54:08.895Z,11.95
2022-11-29T00:56:35.525Z,12.05
2022-11-29T00:59:02.134Z,12.20
2022-11-29T01:01:28.964Z,12.55
2022-11-29T01:03:56.970Z,13.95
2022-11-29T01:06:23.622Z,14.52
2022-11-29T01:08:50.701Z,12.23
2022-11-29T01:11:19.312Z,10.95
2022-11-29T01:13:47.099Z,11.45
2022-11-29T01:16:15.227Z,10.50
2022-11-29T01:18:42.762Z,11.10
2022-11-29T01:21:14.674Z,11.60
2022-11-29T01:23:42.030Z,13.68
2022-11-29T01:26:10.236Z,12.13
2022-11-29T01:28:37.996Z,10.80
2022-11-29T01:31:09.104Z,10.57
2022-11-29T01:33:36.631Z,11.55
2022-11-29T01:36:04.468Z,11.75
2022-11-29T01:38:32.941Z,11.32
2022-11-29T01:41:01.329Z,11.55
2022-11-29T01:43:29.370Z,9.13
2022-11-29T01:45:56.356Z,12.38
2022-11-29T01:48:27.460Z,11.10
2022-11-29T01:50:58.155Z,11.80
2022-11-29T01:53:25.006Z,11.48
2022-11-29T01:55:58.836Z,11.20
2022-11-29T01:58:29.955Z,10.02
2022-11-29T02:00:57.876Z,11.07
2022-11-29T02:03:24.909Z,10.50
2022-11-29T02:05:53.516Z,11.13
2022-11-29T02:08:23.552Z,12.38
2022-11-29T02:11:05.959Z,10.75
2022-11-29T02:13:40.447Z,11.80
2022-11-29T02:16:16.538Z,8.63
2022-11-29T02:18:52.547Z,9.93
2022-11-29T02:21:38.756Z,11.77
2022-11-29T02:24:55.221Z,9.93
2022-11-29T02:27:54.631Z,11.35
2022-11-29T02:30:32.464Z,9.38
2022-11-29T02:33:25.941Z,10.65
2022-11-29T02:36:16.292Z,11.95
2022-11-29T02:39:00.614Z,10.35
2022-11-29T02:41:44.747Z,9.15
2022-11-29T02:44:51.493Z,10.48
2022-11-29T02:47:27.409Z,10.38
2022-11-29T02:50:13.741Z,11.98
2022-11-29T02:52:48.425Z,12.18
2022-11-29T02:55:21.447Z,10.45
2022-11-29T02:57:57.240Z,9.85
2022-11-29T03:00:24.256Z,11.48
2022-11-29T03:02:58.349Z,9.30
2022-11-29T03:05:40.687Z,10.25
2022-11-29T03:08:16.544Z,10.05
2022-11-29T03:10:56.435Z,11.20
2022-11-29T03:13:38.058Z,11.43
2022-11-29T03:16:12.365Z,12.00
2022-11-29T03:18:56.691Z,11.80
2022-11-29T03:21:38.873Z,12.82
2022-11-29T03:24:13.287Z,13.80
2022-11-29T03:26:44.888Z,12.52
2022-11-29T03:29:22.785Z,11.27
2022-11-29T03:31:56.328Z,11.10
2022-11-29T03:34:39.712Z,10.98
2022-11-29T03:37:15.532Z,10.32
2022-11-29T03:39:50.688Z,11.48
2022-11-29T03:42:24.438Z,10.65
2022-11-29T03:44:59.669Z,11.43
2022-11-29T03:47:31.967Z,11.75
2022-11-29T03:50:04.553Z,12.40
2022-11-29T03:52:38.765Z,11.93
2022-11-29T03:55:24.849Z,10.70
2022-11-29T03:58:05.773Z,10.60
2022-11-29T04:00:44.997Z,9.80
2022-11-29T04:03:42.119Z,10.18
2022-11-29T04:06:23.967Z,10.40
2022-11-29T04:09:18.146Z,11.07
2022-11-29T04:12:04.627Z,11.35
2022-11-29T04:14:52.208Z,11.15
2022-11-29T04:17:59.593Z,11.57
2022-11-29T04:20:47.954Z,10.77
2022-11-29T04:23:42.144Z,11.02
2022-11-29T04:26:53.711Z,9.85
2022-11-29T04:29:43.865Z,11.73
2022-11-29T04:32:26.772Z,9.88
2022-11-29T04:35:21.851Z,9.30
2022-11-29T04:38:10.130Z,10.63
2022-11-29T04:40:52.086Z,11.32
2022-11-29T04:43:41.439Z,12.48
2022-11-29T04:46:27.052Z,11.15
2022-11-29T04:49:15.628Z,11.02
2022-11-29T04:52:11.193Z,10.80
2022-11-29T04:54:47.412Z,10.70
2022-11-29T04:57:32.281Z,10.68
2022-11-29T05:00:10.183Z,10.95
2022-11-29T05:02:45.946Z,11.07
2022-11-29T05:05:24.554Z,11.52
2022-11-29T05:08:08.274Z,9.95
2022-11-29T05:13:12.570Z,10.65
2022-11-29T05:16:00.314Z,11.25
2022-11-29T05:18:53.363Z,11.20
2022-11-29T05:21:29.269Z,11.80
2022-11-29T05:24:09.224Z,10.68
2022-11-29T05:26:48.303Z,10.52
2022-11-29T05:29:24.391Z,11.18
2022-11-29T05:32:03.250Z,11.30
2022-11-29T05:34:49.786Z,12.05
2022-11-29T05:37:27.975Z,9.68
2022-11-29T05:40:07.984Z,11.43
2022-11-29T05:43:06.665Z,11.88
2022-11-29T05:45:40.664Z,10.10
2022-11-29T05:48:17.490Z,9.98
2022-11-29T05:50:49.260Z,11.25
2022-11-29T05:55:55.627Z,10.20
2022-11-29T05:58:30.921Z,9.45
2022-11-29T06:01:07.608Z,10.30
2022-11-29T06:03:38.986Z,8.65
2022-11-29T06:06:14.652Z,11.63
2022-11-29T06:08:48.863Z,10.65
2022-11-29T06:11:22.590Z,10.80
2022-11-29T06:14:01.111Z,10.65
2022-11-29T06:16:52.499Z,11.32
2022-11-29T06:19:49.124Z,10.20
2022-11-29T06:22:35.465Z,10.63
2022-11-29T06:25:17.229Z,8.88
2022-11-29T06:27:59.110Z,9.85
2022-11-29T06:30:30.483Z,10.48
2022-11-29T06:33:03.548Z,9.52
2022-11-29T06:35:45.926Z,9.65
2022-11-29T06:38:20.871Z,11.25
2022-11-29T06:40:50.149Z,10.63
2022-11-29T06:43:17.894Z,10.05
2022-11-29T06:45:49.133Z,11.00
2022-11-29T06:48:21.347Z,10.75
2022-11-29T06:50:58.727Z,11.60
2022-11-29T06:53:39.386Z,11.43
2022-11-29T06:56:21.616Z,10.60
2022-11-29T06:58:57.441Z,10.35
2022-11-29T07:01:36.175Z,9.35
2022-11-29T07:04:16.791Z,11.95
2022-11-29T07:06:45.472Z,12.45
2022-11-29T07:09:16.478Z,11.07
2022-11-29T07:11:44.245Z,10.15
2022-11-29T07:14:11.564Z,11.35
2022-11-29T07:16:46.364Z,10.60
2022-11-29T07:19:19.620Z,11.77
2022-11-29T07:21:58.881Z,12.60
2022-11-29T07:24:38.287Z,10.18
2022-11-29T07:27:15.692Z,11.23
2022-11-29T07:29:56.336Z,10.95
2022-11-29T07:32:34.482Z,11.20
2022-11-29T07:35:08.735Z,8.65
2022-11-29T07:37:53.732Z,10.13
2022-11-29T07:40:26.153Z,10.02
2022-11-29T07:43:06.284Z,10.30
2022-11-29T07:45:36.159Z,10.75
2022-11-29T07:48:04.786Z,9.05
2022-11-29T07:50:31.891Z,10.80
2022-11-29T07:53:00.328Z,9.43
2022-11-29T07:55:27.599Z,10.18
2022-11-29T07:57:54.281Z,10.30
2022-11-29T08:00:21.857Z,9.35
2022-11-29T08:02:49.982Z,9.15
2022-11-29T08:05:16.845Z,9.52
2022-11-29T08:07:43.715Z,8.75
2022-11-29T08:10:14.307Z,9.10
2022-11-29T08:12:43.121Z,10.05
2022-11-29T08:15:10.169Z,7.35
2022-11-29T08:17:37.239Z,9.10
2022-11-29T08:20:05.065Z,8.88
2022-11-29T08:22:31.788Z,8.35
2022-11-29T08:24:59.887Z,8.82
2022-11-29T08:27:28.177Z,9.50
2022-11-29T08:29:54.843Z,8.45
2022-11-29T08:32:21.533Z,9.77
2022-11-29T08:34:48.337Z,8.90
2022-11-29T08:37:15.214Z,10.65
2022-11-29T08:39:41.828Z,9.05
2022-11-29T08:42:08.517Z,9.73
2022-11-29T08:44:36.677Z,9.88
2022-11-29T08:47:22.139Z,9.52
2022-11-29T08:50:03.870Z,8.27
2022-11-29T08:52:50.234Z,9.10
2022-11-29T08:55:17.432Z,9.15
2022-11-29T08:57:44.173Z,7.97
2022-11-29T09:00:14.026Z,7.82
2022-11-29T09:02:40.684Z,7.32
2022-11-29T09:05:09.243Z,7.65
2022-11-29T09:07:35.949Z,7.00
2022-11-29T09:10:05.487Z,7.13
2022-11-29T09:12:32.745Z,7.28
2022-11-29T09:14:59.594Z,7.85
2022-11-29T09:17:27.823Z,7.78
2022-11-29T09:19:54.425Z,5.82
2022-11-29T09:22:21.074Z,6.63
2022-11-29T09:24:47.904Z,8.15
2022-11-29T09:27:14.793Z,6.53
2022-11-29T09:29:41.458Z,6.53
2022-11-29T09:32:08.266Z,7.22
2022-11-29T09:34:36.836Z,7.45
2022-11-29T09:37:05.182Z,7.32
2022-11-29T09:39:31.952Z,6.78
2022-11-29T09:42:21.753Z,7.25
2022-11-29T09:45:01.421Z,7.55
2022-11-29T09:47:42.510Z,6.20
2022-11-29T09:50:23.480Z,6.60
2022-11-29T09:52:58.103Z,6.25
2022-11-29T09:55:43.111Z,6.30
2022-11-29T09:58:15.356Z,6.63
2022-11-29T10:00:48.573Z,6.40
2022-11-29T10:03:23.323Z,6.82
2022-11-29T10:05:57.523Z,6.88
2022-11-29T10:08:29.154Z,5.43
2022-11-29T10:11:10.383Z,6.30
2022-11-29T10:13:39.353Z,6.45
2022-11-29T10:16:12.396Z,5.53
2022-11-29T10:18:48.133Z,6.15
2022-11-29T10:21:20.427Z,6.20
2022-11-29T10:23:50.391Z,6.13
2022-11-29T10:26:18.160Z,5.40
2022-11-29T10:28:47.482Z,6.70
2022-11-29T10:31:22.221Z,6.32
2022-11-29T10:33:50.226Z,6.38
2022-11-29T10:36:26.081Z,7.40
2022-11-29T10:38:59.038Z,7.47
2022-11-29T10:41:26.892Z,7.90
2022-11-29T10:43:56.223Z,7.03
2022-11-29T10:46:31.047Z,9.57
2022-11-29T10:48:59.419Z,8.07
2022-11-29T10:51:28.757Z,8.07
2022-11-29T10:53:56.725Z,7.07
2022-11-29T10:56:29.573Z,6.70
2022-11-29T10:58:58.649Z,6.43
2022-11-29T11:01:28.992Z,6.82
2022-11-29T11:03:58.542Z,6.15
2022-11-29T11:06:41.265Z,5.30
2022-11-29T11:09:19.396Z,5.10
2022-11-29T11:11:51.850Z,6.10
2022-11-29T11:14:22.212Z,5.97
2022-11-29T11:16:49.312Z,5.38
2022-11-29T11:19:29.432Z,5.95
2022-11-29T11:21:59.113Z,5.90
2022-11-29T11:24:28.923Z,5.28
2022-11-29T11:26:56.445Z,5.43
2022-11-29T11:29:26.340Z,5.70
2022-11-29T11:31:56.429Z,4.60
2022-11-29T11:34:29.862Z,6.18
2022-11-29T11:39:52.160Z,5.35
2022-11-29T11:42:36.912Z,6.05
2022-11-29T11:45:19.718Z,6.45
2022-11-29T11:47:49.766Z,5.38
2022-11-29T11:50:24.927Z,7.30
2022-11-29T11:52:55.067Z,4.88
2022-11-29T11:55:34.513Z,6.03
2022-11-29T11:58:17.159Z,6.32
2022-11-29T12:01:02.838Z,5.47
2022-11-29T12:03:38.017Z,5.55
2022-11-29T12:06:45.616Z,5.50
2022-11-29T12:09:20.011Z,5.47
2022-11-29T12:11:56.456Z,4.15
2022-11-29T12:14:30.295Z,5.47
2022-11-29T12:17:05.170Z,5.05
2022-11-29T12:19:41.045Z,5.43
2022-11-29T12:22:16.300Z,5.78
2022-11-29T12:24:53.350Z,4.97
2022-11-29T12:27:21.414Z,6.20
2022-11-29T12:29:48.067Z,5.65
2022-11-29T12:32:49.387Z,5.72
2022-11-29T12:35:36.378Z,5.85
2022-11-29T12:38:12.982Z,5.88
2022-11-29T12:40:49.296Z,5.85
2022-11-29T12:43:30.401Z,4.70
2022-11-29T12:46:03.651Z,5.85
2022-11-29T12:48:39.056Z,7.25
2022-11-29T12:51:14.957Z,6.43
2022-11-29T12:53:59.320Z,6.93
2022-11-29T12:56:31.137Z,6.72
2022-11-29T12:59:20.821Z,6.55
2022-11-29T13:04:33.408Z,6.13
2022-11-29T13:07:10.936Z,6.28
2022-11-29T13:09:58.068Z,6.35
2022-11-29T13:12:33.171Z,5.07
2022-11-29T13:15:05.428Z,6.40
2022-11-29T13:17:40.741Z,6.32
2022-11-29T13:20:31.527Z,5.65
2022-11-29T13:23:05.178Z,6.65
2022-11-29T13:25:37.341Z,5.88
2022-11-29T13:28:07.775Z,5.75
2022-11-29T13:30:37.173Z,6.10
2022-11-29T13:33:10.552Z,6.00
2022-11-29T13:35:41.972Z,5.63
2022-11-29T13:38:18.607Z,6.80
2022-11-29T13:40:58.256Z,6.97
2022-11-29T13:43:30.722Z,6.07
2022-11-29T13:46:09.302Z,6.47
2022-11-29T13:48:48.316Z,5.28
2022-11-29T13:51:41.164Z,6.30
2022-11-29T13:54:26.810Z,6.30
2022-11-29T13:57:02.293Z,7.20
2022-11-29T13:59:31.192Z,6.07
2022-11-29T14:01:59.865Z,7.32
2022-11-29T14:04:34.621Z,6.07
2022-11-29T14:07:08.264Z,5.90
2022-11-29T14:09:49.308Z,7.10
2022-11-29T14:12:40.385Z,6.55
2022-11-29T14:15:25.275Z,5.97
2022-11-29T14:17:56.543Z,7.00
2022-11-29T14:20:59.518Z,5.68
2022-11-29T14:23:42.474Z,6.07
2022-11-29T14:26:29.639Z,6.70
2022-11-29T14:29:00.203Z,6.45
2022-11-29T14:31:53.381Z,6.75
2022-11-29T14:34:39.755Z,7.07
2022-11-29T14:37:33.948Z,6.72
2022-11-29T14:40:11.359Z,6.47
2022-11-29T14:42:46.849Z,5.78
2022-11-29T14:45:24.186Z,5.50
2022-11-29T14:47:51.913Z,6.72
2022-11-29T14:50:32.094Z,8.10
2022-11-29T14:52:59.250Z,7.57
2022-11-29T14:55:35.430Z,6.90
2022-11-29T14:58:21.174Z,7.82
2022-11-29T15:01:09.722Z,6.68
2022-11-29T15:03:47.850Z,6.15
2022-11-29T15:06:24.161Z,6.35
2022-11-29T15:08:57.470Z,6.15
2022-11-29T15:11:35.565Z,7.50
2022-11-29T15:14:05.581Z,6.95
2022-11-29T15:16:50.962Z,7.13
2022-11-29T15:19:45.233Z,6.35
2022-11-29T15:22:18.224Z,6.68
2022-11-29T15:24:53.390Z,5.80
2022-11-29T15:27:21.173Z,6.32
2022-11-29T15:29:48.503Z,7.05
2022-11-29T15:32:22.424Z,7.28
2022-11-29T15:34:53.788Z,7.22
2022-11-29T15:37:39.132Z,6.68
2022-11-29T15:40:11.644Z,6.63
2022-11-29T15:42:40.225Z,6.65
2022-11-29T15:45:28.613Z,7.35
2022-11-29T15:48:09.818Z,8.00
2022-11-29T15:50:39.590Z,7.85
2022-11-29T15:53:13.448Z,6.43
2022-11-29T15:55:40.366Z,6.63
2022-11-29T15:58:11.831Z,7.82
2022-11-29T16:00:41.036Z,7.50
2022-11-29T16:03:18.338Z,6.60
2022-11-29T16:05:51.544Z,6.95
2022-11-29T16:08:21.101Z,6.95
2022-11-29T16:10:51.626Z,5.82
2022-11-29T16:13:37.675Z,6.70
2022-11-29T16:16:13.612Z,7.72
2022-11-29T16:18:41.928Z,6.43
2022-11-29T16:21:24.444Z,6.63
2022-11-29T16:23:53.369Z,6.50
2022-11-29T16:26:23.143Z,7.20
2022-11-29T16:28:51.934Z,7.40
2022-11-29T16:31:20.574Z,7.53
2022-11-29T16:33:49.240Z,7.57
2022-11-29T16:36:20.860Z,6.25
2022-11-29T16:38:49.954Z,7.13
2022-11-29T16:41:32.479Z,7.43
2022-11-29T16:44:03.130Z,7.15
2022-11-29T16:46:39.779Z,6.90
2022-11-29T16:49:33.746Z,8.30
2022-11-29T16:52:01.538Z,7.50
2022-11-29T16:54:33.820Z,7.88
2022-11-29T16:57:05.257Z,7.45
2022-11-29T16:59:32.561Z,8.15
2022-11-29T17:01:59.482Z,7.05
2022-11-29T17:04:26.510Z,7.57
2022-11-29T17:06:54.852Z,6.45
2022-11-29T17:09:27.767Z,7.55
2022-11-29T17:11:55.558Z,8.07
2022-11-29T17:14:23.697Z,7.65
2022-11-29T17:16:51.877Z,8.50
2022-11-29T17:19:20.516Z,5.90
2022-11-29T17:21:47.601Z,7.75
2022-11-29T17:24:16.794Z,8.70
2022-11-29T17:26:44.332Z,9.52
2022-11-29T17:29:11.636Z,8.20
2022-11-29T17:31:40.156Z,6.35
2022-11-29T17:34:07.182Z,9.13
2022-11-29T17:36:33.836Z,7.95
2022-11-29T17:39:01.193Z,8.18
2022-11-29T17:41:28.532Z,9.23
2022-11-29T17:43:56.672Z,8.90
2022-11-29T17:46:26.132Z,8.50
2022-11-29T17:48:54.896Z,8.68
2022-11-29T17:51:50.597Z,7.18
2022-11-29T17:54:10.124Z,8.57
2022-11-29T17:56:36.790Z,7.40
2022-11-29T17:59:04.937Z,7.65
2022-11-29T18:01:34.687Z,7.47
2022-11-29T18:04:04.408Z,8.27
2022-11-29T18:06:34.696Z,7.10
2022-11-29T18:09:02.662Z,8.00
2022-11-29T18:11:38.807Z,6.90
2022-11-29T18:14:11.217Z,7.70
2022-11-29T18:16:38.505Z,8.63
2022-11-29T18:19:09.100Z,8.82
2022-11-29T18:21:39.141Z,7.45
2022-11-29T18:24:07.414Z,8.68
2022-11-29T18:26:36.909Z,8.85
2022-11-29T18:29:05.075Z,8.65
2022-11-29T18:31:33.344Z,7.60
2022-11-29T18:34:01.680Z,8.15
2022-11-29T18:36:32.513Z,8.30
2022-11-29T18:39:00.398Z,8.43
2022-11-29T18:41:29.134Z,7.80
2022-11-29T18:43:58.723Z,8.13
2022-11-29T18:46:25.884Z,7.57
2022-11-29T18:48:52.962Z,7.82
2022-11-29T18:51:20.334Z,8.82
2022-11-29T18:53:48.364Z,8.60
2022-11-29T18:56:16.894Z,8.77
2022-11-29T18:58:44.184Z,9.07
2022-11-29T19:01:12.835Z,8.57
2022-11-29T19:03:42.139Z,7.68
2022-11-29T19:06:12.466Z,8.77
2022-11-29T19:08:39.438Z,9.55
2022-11-29T19:11:08.728Z,7.15
2022-11-29T19:13:35.877Z,9.55
2022-11-29T19:16:03.764Z,9.55
2022-11-29T19:18:30.849Z,9.68
2022-11-29T19:21:04.562Z,6.45
2022-11-29T19:23:31.488Z,8.77
2022-11-29T19:26:02.221Z,10.07
2022-11-29T19:28:30.602Z,8.90
2022-11-29T19:30:57.706Z,9.13
2022-11-29T19:33:24.651Z,8.35
2022-11-29T19:35:51.225Z,9.68
2022-11-29T19:38:17.991Z,7.55
2022-11-29T19:40:44.631Z,8.13
2022-11-29T19:43:11.264Z,12.18
2022-11-29T19:45:40.427Z,11.65
2022-11-29T19:48:07.216Z,11.57
2022-11-29T19:50:33.821Z,10.57
2022-11-29T19:53:00.626Z,11.20
2022-11-29T19:55:27.372Z,9.73
2022-11-29T19:57:57.221Z,9.75
2022-11-29T20:00:24.333Z,7.72
2022-11-29T20:02:52.377Z,9.35
2022-11-29T20:05:19.100Z,9.32
2022-11-29T20:07:45.759Z,9.30
2022-11-29T20:10:12.815Z,8.27
2022-11-29T20:12:42.758Z,9.07
2022-11-29T20:15:09.712Z,7.85
2022-11-29T20:17:36.520Z,8.85
2022-11-29T20:20:05.570Z,8.32
2022-11-29T20:22:32.244Z,8.15
2022-11-29T20:24:58.902Z,7.93
2022-11-29T20:27:25.758Z,7.80
2022-11-29T20:29:52.594Z,8.18
2022-11-29T20:32:19.391Z,7.50
2022-11-29T20:34:46.764Z,6.80
2022-11-29T20:37:30.164Z,7.30
2022-11-29T20:40:00.453Z,6.97
2022-11-29T20:42:50.456Z,6.97
2022-11-29T20:45:17.842Z,6.78
2022-11-29T20:47:53.040Z,7.45
2022-11-29T20:50:23.686Z,8.07
2022-11-29T20:53:06.833Z,7.40
2022-11-29T20:55:33.687Z,7.68
2022-11-29T20:58:00.409Z,6.68
2022-11-29T21:00:27.069Z,6.65
2022-11-29T21:02:53.829Z,7.45
2022-11-29T21:05:20.562Z,6.88
2022-11-29T21:07:47.320Z,6.90
2022-11-29T21:10:15.536Z,8.02
2022-11-29T21:12:42.973Z,7.38
2022-11-29T21:15:11.131Z,6.15
2022-11-29T21:17:38.519Z,7.63
2022-11-29T21:20:06.653Z,7.30
2022-11-29T21:22:40.630Z,7.60
2022-11-29T21:25:15.530Z,7.50
2022-11-29T21:27:44.167Z,7.45
2022-11-29T21:30:17.822Z,7.95
2022-11-29T21:32:45.737Z,6.43
2022-11-29T21:35:12.416Z,8.13
2022-11-29T21:37:39.250Z,7.93
2022-11-29T21:40:07.692Z,7.28
2022-11-29T21:42:34.373Z,6.45
2022-11-29T21:45:02.533Z,7.32
2022-11-29T21:47:30.504Z,7.93
2022-11-29T21:49:57.348Z,8.50
2022-11-29T21:52:23.994Z,7.85
2022-11-29T21:54:50.660Z,7.53
2022-11-29T21:57:17.492Z,6.95
2022-11-29T21:59:44.169Z,7.75
2022-11-29T22:02:12.553Z,6.45
2022-11-29T22:04:39.231Z,8.68
2022-11-29T22:07:05.805Z,7.25
2022-11-29T22:09:32.519Z,7.32
2022-11-29T22:11:59.342Z,7.13
2022-11-29T22:14:25.994Z,6.88
2022-11-29T22:16:54.632Z,6.47
2022-11-29T22:19:24.490Z,6.60
2022-11-29T22:21:53.555Z,7.93
2022-11-29T22:24:22.053Z,7.93
2022-11-29T22:26:49.818Z,7.28
2022-11-29T22:29:17.089Z,7.10
2022-11-29T22:31:45.715Z,8.60
2022-11-29T22:34:12.831Z,7.63
2022-11-29T22:36:41.585Z,8.50
2022-11-29T22:39:09.237Z,9.20
2022-11-29T22:41:38.636Z,8.63
2022-11-29T22:44:06.074Z,7.32
2022-11-29T22:46:35.399Z,8.88
2022-11-29T22:49:03.174Z,8.80
2022-11-29T22:51:31.497Z,7.13
2022-11-29T22:54:01.309Z,8.82
2022-11-29T22:56:30.195Z,8.77
2022-11-29T22:58:57.070Z,8.75
2022-11-29T23:01:25.214Z,8.27
2022-11-29T23:04:00.705Z,9.75
2022-11-29T23:06:29.320Z,9.88
2022-11-29T23:08:57.856Z,9.15
2022-11-29T23:11:27.621Z,8.45
2022-11-29T23:13:55.236Z,8.98
2022-11-29T23:16:25.484Z,8.48
2022-11-29T23:18:53.176Z,9.40
2022-11-29T23:21:21.666Z,9.07
2022-11-29T23:23:53.048Z,8.32
2022-11-29T23:26:25.976Z,8.10
2022-11-29T23:28:53.917Z,9.38
2022-11-29T23:31:22.198Z,9.90
2022-11-29T23:33:49.305Z,8.63
2022-11-29T23:36:16.732Z,9.23
2022-11-29T23:38:43.979Z,8.57
2022-11-29T23:41:11.762Z,7.95
2022-11-29T23:43:41.574Z,8.52
2022-11-29T23:46:12.223Z,8.82
2022-11-29T23:48:38.980Z,7.72
2022-11-29T23:51:06.025Z,8.63
2022-11-29T23:53:33.346Z,7.97
2022-11-29T23:56:01.985Z,8.40
2022-11-29T23:58:30.217Z,7.80
